Stk-1004 — UBEM — position and weather

sailwx.info

Track history (hours):
 
Tides and Currents Weather Stations Pressure Air Temp Water Temp Dewpoint Dewpoint Depression Visibility Wind Speed Wind Dir Waves Ship Positions

Stk-1004

Last reported at 2015-Aug-02 21:33 UTC. Time now 2015-Aug-02 22:26 UTC.
Position N 59°56' E 030°17'.

Length 82 m; draft 2.4 m.

Type: Cargo ship. MMSI: 273439130.

Date/timePositionNaut miles runAvg speedWind from/ knotsBaromVisibWave heightAir tempDewpointWater temp
2015-Aug-02 21:33N 59°56' E 030°17'0 0.0
2015-Aug-02 20:33N 59°56' E 030°17'0 0.0
2015-Aug-02 19:33N 59°56' E 030°17'0 0.0
2015-Aug-02 18:34N 59°56' E 030°17'0 0.0
2015-Aug-02 17:33N 59°56' E 030°17'  
2015-Jul-31 01:33N 59°55' E 030°02'7 6.6
2015-Jul-31 00:33N 59°55' E 030°16'4 4.0
2015-Jul-30 23:33N 59°55' E 030°24'0 0.0
2015-Jul-30 22:33N 59°55' E 030°24'0 0.0
2015-Jul-30 21:33N 59°55' E 030°24'0 0.0
2015-Jul-30 20:33N 59°55' E 030°24'0 0.0
2015-Jul-30 19:33N 59°55' E 030°24'0 0.0
2015-Jul-30 18:33N 59°55' E 030°24'0 0.0
2015-Jul-30 17:33N 59°55' E 030°24'  
2015-Jul-25 01:16N 59°52' E 030°28'4 5.6
2015-Jul-25 00:33N 59°55' E 030°24'0 0.2
2015-Jul-24 23:33N 59°56' E 030°24'3 3.4
2015-Jul-24 22:33N 59°56' E 030°17'0 0.0
2015-Jul-24 21:33N 59°56' E 030°17'0 0.0
2015-Jul-24 20:34N 59°56' E 030°17'0 0.0
2015-Jul-24 19:34N 59°56' E 030°17'0 0.0
2015-Jul-24 18:34N 59°56' E 030°17'0 0.0
2015-Jul-24 17:33N 59°56' E 030°17'0 0.0
2015-Jul-24 16:31N 59°56' E 030°17'0 0.0
2015-Jul-24 15:33N 59°56' E 030°17'0 0.0
2015-Jul-24 14:33N 59°56' E 030°17'0 0.0
2015-Jul-24 13:33N 59°56' E 030°17'0 0.0
2015-Jul-24 12:33N 59°56' E 030°17'0 0.0
2015-Jul-24 11:33N 59°56' E 030°17'0 0.0
2015-Jul-24 10:33N 59°56' E 030°17'0 0.0
2015-Jul-24 09:33N 59°56' E 030°17'3 3.3
2015-Jul-24 08:33N 59°56' E 030°10'9 7.4
2015-Jul-24 07:21N 59°57' E 029°53'  
Track history (hours):
 
Tides and Currents Weather Stations Pressure Air Temp Water Temp Dewpoint Dewpoint Depression Visibility Wind Speed Wind Dir Waves Ship Positions

Stk-1004

Last reported at 2015-Aug-02 21:33 UTC. Time now 2015-Aug-02 22:26 UTC.
Position N 59°56' E 030°17'.

Length 82 m; draft 2.4 m.

Type: Cargo ship. MMSI: 273439130.

Date/timePositionNaut miles runAvg speedWind from/ knotsBaromVisibWave heightAir tempDewpointWater temp
2015-Aug-02 21:33N 59°56' E 030°17'0 0.0
2015-Aug-02 20:33N 59°56' E 030°17'0 0.0
2015-Aug-02 19:33N 59°56' E 030°17'0 0.0
2015-Aug-02 18:34N 59°56' E 030°17'0 0.0
2015-Aug-02 17:33N 59°56' E 030°17'  
2015-Jul-31 01:33N 59°55' E 030°02'7 6.6
2015-Jul-31 00:33N 59°55' E 030°16'4 4.0
2015-Jul-30 23:33N 59°55' E 030°24'0 0.0
2015-Jul-30 22:33N 59°55' E 030°24'0 0.0
2015-Jul-30 21:33N 59°55' E 030°24'0 0.0
2015-Jul-30 20:33N 59°55' E 030°24'0 0.0
2015-Jul-30 19:33N 59°55' E 030°24'0 0.0
2015-Jul-30 18:33N 59°55' E 030°24'0 0.0
2015-Jul-30 17:33N 59°55' E 030°24'  
2015-Jul-25 01:16N 59°52' E 030°28'4 5.6
2015-Jul-25 00:33N 59°55' E 030°24'0 0.2
2015-Jul-24 23:33N 59°56' E 030°24'3 3.4
2015-Jul-24 22:33N 59°56' E 030°17'0 0.0
2015-Jul-24 21:33N 59°56' E 030°17'0 0.0
2015-Jul-24 20:34N 59°56' E 030°17'0 0.0
2015-Jul-24 19:34N 59°56' E 030°17'0 0.0
2015-Jul-24 18:34N 59°56' E 030°17'0 0.0
2015-Jul-24 17:33N 59°56' E 030°17'0 0.0
2015-Jul-24 16:31N 59°56' E 030°17'0 0.0
2015-Jul-24 15:33N 59°56' E 030°17'0 0.0
2015-Jul-24 14:33N 59°56' E 030°17'0 0.0
2015-Jul-24 13:33N 59°56' E 030°17'0 0.0
2015-Jul-24 12:33N 59°56' E 030°17'0 0.0
2015-Jul-24 11:33N 59°56' E 030°17'0 0.0
2015-Jul-24 10:33N 59°56' E 030°17'0 0.0
2015-Jul-24 09:33N 59°56' E 030°17'3 3.3
2015-Jul-24 08:33N 59°56' E 030°10'9 7.4
2015-Jul-24 07:21N 59°57' E 029°53'  

Dump ship's entire track history